Time;durP1;ratioP1;P1;durP2;ratioP2;P2;SDS_P1;SDS_P2;PMS_P1;PMS_P2;Temp;Humidity;BMP_temperature;BMP_pressure;BME280_temperature;BME280_humidity;BME280_pressure;Samples;Min_cycle;Max_cycle;Signal;HPM_P1;HPM_P2
2023/06/23 00:00:14;;;;;;;14.57;13.07;;;;;;;28.64;51.77;99539.62;4377114;32;33928;-68
2023/06/23 00:02:41;;;;;;;14.38;12.95;;;;;;;28.63;51.77;99541.56;4376952;32;34450;-69
2023/06/23 00:05:09;;;;;;;15.60;12.75;;;;;;;28.61;51.77;99532.75;4363670;32;34330;-68
2023/06/23 00:07:37;;;;;;;13.52;12.13;;;;;;;28.61;51.71;99529.16;4377187;32;33742;-68
2023/06/23 00:10:05;;;;;;;15.32;12.90;;;;;;;28.62;51.66;99528.87;4376089;32;34236;-68
2023/06/23 00:12:34;;;;;;;13.30;11.93;;;;;;;28.60;51.61;99528.34;4377298;32;35011;-68
2023/06/23 00:15:02;;;;;;;15.40;13.80;;;;;;;28.59;51.52;99534.94;4377020;32;34177;-68
2023/06/23 00:17:30;;;;;;;14.48;12.75;;;;;;;28.60;51.58;99522.84;4376944;32;33558;-69
2023/06/23 00:19:58;;;;;;;16.15;13.27;;;;;;;28.62;51.36;99519.84;4363602;32;33599;-67
2023/06/23 00:22:27;;;;;;;13.73;12.32;;;;;;;28.61;51.31;99512.69;4377316;32;33782;-68
2023/06/23 00:24:55;;;;;;;13.82;12.43;;;;;;;28.61;51.27;99509.97;4377130;32;34719;-68
2023/06/23 00:27:23;;;;;;;13.68;12.27;;;;;;;28.60;51.22;99514.63;4377008;32;33758;-68
2023/06/23 00:29:50;;;;;;;13.48;12.07;;;;;;;28.60;51.36;99519.28;4376996;32;33723;-68
2023/06/23 00:32:18;;;;;;;13.95;12.60;;;;;;;28.59;51.40;99526.69;4376803;32;33953;-68
2023/06/23 00:34:45;;;;;;;14.02;12.52;;;;;;;28.60;51.51;99533.00;4376906;32;34362;-68
2023/06/23 00:37:14;;;;;;;15.90;13.20;;;;;;;28.59;51.49;99537.69;4376871;32;34127;-68
2023/06/23 00:39:42;;;;;;;16.55;12.57;;;;;;;28.58;51.39;99533.25;4377018;32;33627;-68
2023/06/23 00:42:10;;;;;;;17.50;12.52;;;;;;;28.59;51.38;99536.87;4376758;32;34146;-68
2023/06/23 00:44:37;;;;;;;13.95;12.45;;;;;;;28.57;51.30;99530.78;4376760;32;33570;-68
2023/06/23 00:47:05;;;;;;;13.15;11.45;;;;;;;28.56;51.23;99535.47;4376907;32;33528;-68
2023/06/23 00:49:35;;;;;;;13.98;12.18;;;;;;;28.56;51.27;99540.94;4363249;32;34693;-68
2023/06/23 00:52:03;;;;;;;13.77;12.33;;;;;;;28.57;51.27;99545.34;4363386;32;33928;-68
2023/06/23 00:54:34;;;;;;;13.43;12.00;;;;;;;28.58;51.27;99533.25;4363403;32;34125;-68
2023/06/23 00:57:02;;;;;;;15.48;12.63;;;;;;;28.58;51.39;99525.03;4363591;32;33680;-68
2023/06/23 00:59:30;;;;;;;14.15;12.48;;;;;;;28.59;51.40;99515.72;4376663;32;33987;-69
2023/06/23 01:02:00;;;;;;;15.13;12.73;;;;;;;28.58;51.39;99511.31;4363249;32;33754;-68
2023/06/23 01:04:34;;;;;;;13.45;11.98;;;;;;;28.58;51.35;99500.31;4377030;32;34007;-68
2023/06/23 01:07:08;;;;;;;14.43;12.50;;;;;;;28.60;51.25;99498.16;4351960;32;34277;-68
2023/06/23 01:10:11;;;;;;;14.80;13.20;;;;;;;28.58;51.03;99497.56;4377009;32;33817;-68
2023/06/23 01:12:59;;;;;;;16.30;12.90;;;;;;;28.58;50.94;99489.34;4360720;32;34391;-67
2023/06/23 01:15:32;;;;;;;14.77;12.43;;;;;;;28.55;51.17;99487.16;4363122;32;33842;-68
2023/06/23 01:18:21;;;;;;;20.17;13.27;;;;;;;28.54;51.22;99490.16;4363160;32;34582;-68
2023/06/23 01:20:49;;;;;;;15.15;13.55;;;;;;;28.51;51.17;99486.03;4376637;32;34084;-68
2023/06/23 01:23:20;;;;;;;15.25;13.25;;;;;;;28.48;51.31;99492.88;4363145;32;34658;-68
2023/06/23 01:26:12;;;;;;;14.70;12.88;;;;;;;28.44;51.41;99483.53;4376484;32;33844;-69
2023/06/23 01:28:47;;;;;;;15.52;12.95;;;;;;;28.45;51.50;99484.38;4375600;32;34652;-68
2023/06/23 01:31:31;;;;;;;14.85;13.15;;;;;;;28.40;51.53;99479.69;4376795;32;33822;-68
2023/06/23 01:34:03;;;;;;;13.27;11.88;;;;;;;28.39;51.39;99477.19;4364467;32;34837;-68
2023/06/23 01:36:44;;;;;;;13.68;12.27;;;;;;;28.39;51.31;99478.00;4351264;32;34541;-68
2023/06/23 01:39:14;;;;;;;13.52;12.13;;;;;;;28.42;51.33;99476.66;4363143;32;34435;-67
2023/06/23 01:41:52;;;;;;;14.13;12.73;;;;;;;28.42;51.31;99474.75;4362634;32;34941;-67
2023/06/23 01:44:22;;;;;;;13.85;11.73;;;;;;;28.45;51.20;99478.88;4363063;32;34020;-68
2023/06/23 01:46:52;;;;;;;13.27;11.35;;;;;;;28.43;51.11;99478.31;4362812;32;33978;-69
2023/06/23 01:49:23;;;;;;;13.62;12.23;;;;;;;28.44;51.02;99501.91;4376390;32;33767;-68
2023/06/23 01:51:51;;;;;;;13.85;12.32;;;;;;;28.43;51.00;99513.97;4350820;32;33769;-68
2023/06/23 01:54:19;;;;;;;16.83;12.48;;;;;;;28.44;50.97;99523.84;4362598;32;34076;-68
2023/06/23 01:56:46;;;;;;;15.63;12.35;;;;;;;28.43;50.87;99514.81;4350581;32;33965;-68
2023/06/23 01:59:14;;;;;;;15.45;12.75;;;;;;;28.43;50.86;99512.06;4362744;32;33687;-68
2023/06/23 02:01:42;;;;;;;13.30;12.00;;;;;;;28.44;50.75;99502.72;4348968;32;33978;-68
2023/06/23 02:04:11;;;;;;;15.17;12.13;;;;;;;28.44;50.76;99508.22;4361386;32;33964;-68
2023/06/23 02:06:41;;;;;;;13.57;12.18;;;;;;;28.46;50.73;99517.03;4361094;32;34248;-68
2023/06/23 02:09:11;;;;;;;14.95;11.45;;;;;;;28.45;50.71;99520.87;4347659;32;34431;-68
2023/06/23 02:11:38;;;;;;;;;;;;;;;28.45;50.74;99520.87;4336026;32;33662;-67
2023/06/23 02:14:06;;;;;;;13.85;11.95;;;;;;;28.57;50.36;99514.31;4347318;32;34008;-67
2023/06/23 02:16:34;;;;;;;14.57;12.70;;;;;;;28.48;50.50;99514.81;4347576;32;34203;-67
2023/06/23 02:19:04;;;;;;;13.82;12.30;;;;;;;28.42;50.81;99509.59;4348006;32;34442;-67
2023/06/23 02:21:31;;;;;;;17.33;12.95;;;;;;;28.41;50.89;99502.47;4360811;32;33922;-68
2023/06/23 02:24:02;;;;;;;16.80;13.15;;;;;;;28.38;50.89;99508.47;4347833;32;34540;-68
2023/06/23 02:26:30;;;;;;;14.02;12.10;;;;;;;28.37;50.87;99512.31;4347534;32;34533;-68
2023/06/23 02:28:57;;;;;;;15.40;12.37;;;;;;;28.36;50.87;99505.19;4347327;32;33362;-68
2023/06/23 02:31:25;;;;;;;14.90;12.45;;;;;;;28.35;50.79;99509.00;4347355;32;34656;-67
2023/06/23 02:33:53;;;;;;;14.48;13.07;;;;;;;28.36;50.71;99510.66;4347304;32;33888;-67
2023/06/23 02:36:22;;;;;;;13.38;11.98;;;;;;;28.37;50.68;99512.31;4347153;32;34187;-68
2023/06/23 02:38:50;;;;;;;15.02;12.13;;;;;;;28.35;50.67;99509.00;4360754;32;33295;-68
2023/06/23 02:41:19;;;;;;;14.70;11.98;;;;;;;28.37;50.57;99507.66;4349006;32;34690;-68
2023/06/23 02:43:50;;;;;;;13.98;12.48;;;;;;;28.36;50.60;99500.50;4336740;32;34931;-68
2023/06/23 02:46:18;;;;;;;14.45;12.25;;;;;;;28.35;50.66;99498.03;4349486;32;34547;-67
2023/06/23 02:48:51;;;;;;;14.55;12.13;;;;;;;28.36;50.54;99499.69;4337296;32;33546;-68
2023/06/23 02:51:20;;;;;;;15.95;11.93;;;;;;;28.35;50.48;99498.87;4337475;32;33987;-68
2023/06/23 02:53:50;;;;;;;15.18;11.38;;;;;;;28.37;50.42;99490.37;4349276;32;34699;-67
2023/06/23 02:56:19;;;;;;;16.55;12.15;;;;;;;28.37;50.39;99495.84;4336986;32;33674;-67
2023/06/23 02:58:47;;;;;;;13.98;12.05;;;;;;;28.37;50.34;99495.84;4349266;32;33878;-67
2023/06/23 03:01:15;;;;;;;12.95;11.57;;;;;;;28.37;50.28;99488.44;4359956;32;33645;-67
2023/06/23 03:03:42;;;;;;;13.32;11.90;;;;;;;28.36;50.26;99497.78;4363869;32;34003;-68
2023/06/23 03:06:18;;;;;;;13.93;11.95;;;;;;;28.38;50.28;99497.50;4364059;32;34305;-67
2023/06/23 03:08:47;;;;;;;13.80;11.90;;;;;;;28.38;50.32;99500.25;4377477;32;34591;-67
2023/06/23 03:11:16;;;;;;;13.73;11.45;;;;;;;28.37;50.33;99499.41;4364164;32;33855;-67
2023/06/23 03:13:44;;;;;;;14.37;12.30;;;;;;;28.36;50.31;99499.69;4377445;32;34792;-67
2023/06/23 03:16:38;;;;;;;13.43;12.02;;;;;;;28.37;50.31;99502.16;4363860;32;34803;-68
2023/06/23 03:19:24;;;;;;;15.95;10.90;;;;;;;28.39;50.29;99505.44;4369812;32;33243;-69
2023/06/23 03:22:05;;;;;;;14.02;11.40;;;;;;;28.38;50.32;99514.78;4377396;32;34660;-68
2023/06/23 03:24:34;;;;;;;13.45;11.43;;;;;;;28.35;50.46;99509.84;4364234;32;33982;-68
2023/06/23 03:27:02;;;;;;;12.60;11.25;;;;;;;28.33;50.44;99511.97;4377344;32;34149;-68
2023/06/23 03:29:30;;;;;;;16.02;11.68;;;;;;;28.32;50.42;99510.34;4364077;32;34492;-69
2023/06/23 03:32:02;;;;;;;14.15;10.82;;;;;;;28.32;50.38;99525.97;4351665;32;33894;-68
2023/06/23 03:34:36;;;;;;;13.95;11.55;;;;;;;28.34;50.32;99526.53;4363800;32;34152;-68
2023/06/23 03:37:04;;;;;;;14.25;11.30;;;;;;;28.34;50.38;99529.28;4363881;32;34120;-69
2023/06/23 03:39:33;;;;;;;12.37;11.07;;;;;;;28.32;50.38;99531.47;4363665;32;34710;-69
2023/06/23 03:42:01;;;;;;;13.35;11.95;;;;;;;28.32;50.34;99534.22;4363872;32;34829;-68
2023/06/23 03:44:32;;;;;;;13.55;10.70;;;;;;;28.34;50.34;99523.78;4377238;32;34020;-67
2023/06/23 03:47:00;;;;;;;;;;;;;;;28.34;50.29;99524.62;4351812;32;35667;-68
2023/06/23 03:49:30;;;;;;;13.65;10.32;;;;;;;28.44;49.92;99516.44;4377407;32;34520;-68
2023/06/23 03:51:58;;;;;;;12.37;10.82;;;;;;;28.36;50.01;99516.97;4376557;32;34019;-68
2023/06/23 03:54:26;;;;;;;12.85;11.02;;;;;;;28.35;50.06;99514.47;4363678;32;33512;-67
2023/06/23 03:56:53;;;;;;;12.25;10.80;;;;;;;28.34;50.05;99521.03;4351425;32;34821;-68
2023/06/23 03:59:22;;;;;;;13.95;11.18;;;;;;;28.34;50.02;99535.63;4351394;32;33701;-68
2023/06/23 04:01:49;;;;;;;14.25;11.00;;;;;;;28.34;50.01;99543.84;4349293;32;33977;-67
2023/06/23 04:04:17;;;;;;;14.30;11.02;;;;;;;28.35;50.05;99539.19;4349098;32;33949;-68
2023/06/23 04:06:45;;;;;;;14.45;11.35;;;;;;;28.35;50.05;99541.91;4336550;32;33999;-68
2023/06/23 04:09:13;;;;;;;13.95;10.88;;;;;;;28.34;50.13;99553.97;4348731;32;34510;-68
2023/06/23 04:11:41;;;;;;;12.55;10.90;;;;;;;28.34;50.14;99545.72;4348932;32;33445;-68
2023/06/23 04:14:08;;;;;;;11.65;10.43;;;;;;;28.34;50.08;99534.75;4348902;32;33685;-67
2023/06/23 04:16:36;;;;;;;14.00;11.60;;;;;;;28.34;50.12;99535.63;4348678;32;34294;-67
2023/06/23 04:19:04;;;;;;;12.52;10.52;;;;;;;28.34;50.21;99540.25;4362125;32;33843;-68
2023/06/23 04:21:32;;;;;;;13.00;10.30;;;;;;;28.34;50.30;99548.47;4348699;32;34014;-68
2023/06/23 04:24:01;;;;;;;13.00;10.80;;;;;;;28.35;50.39;99541.91;4348680;32;34160;-68
2023/06/23 04:26:28;;;;;;;14.13;11.38;;;;;;;28.36;50.47;99540.84;4336596;32;34324;-68
2023/06/23 04:28:56;;;;;;;13.75;11.35;;;;;;;28.36;50.55;99538.94;4362003;32;33406;-68
2023/06/23 04:31:24;;;;;;;12.23;10.82;;;;;;;28.37;50.54;99537.84;4348737;32;33823;-68
2023/06/23 04:33:51;;;;;;;13.35;10.98;;;;;;;28.37;50.56;99534.28;4336508;32;34095;-67
2023/06/23 04:36:20;;;;;;;14.52;10.80;;;;;;;28.38;50.58;99539.47;4361859;32;34727;-67
2023/06/23 04:38:53;;;;;;;13.35;10.90;;;;;;;28.38;50.60;99542.22;4361998;32;35111;-67
2023/06/23 04:41:21;;;;;;;15.32;11.57;;;;;;;28.38;50.67;99535.91;4348964;32;33455;-67
2023/06/23 04:43:53;;;;;;;13.65;11.10;;;;;;;28.39;50.69;99530.16;4348253;32;34738;-67
2023/06/23 04:46:28;;;;;;;14.70;11.50;;;;;;;28.39;50.71;99538.38;4336470;32;34861;-67
2023/06/23 04:48:59;;;;;;;13.93;11.65;;;;;;;28.41;50.70;99543.63;4348361;32;33156;-68
2023/06/23 04:51:32;;;;;;;16.30;11.45;;;;;;;28.40;50.71;99520.03;4348831;32;33463;-68
2023/06/23 04:54:01;;;;;;;15.98;10.93;;;;;;;28.40;50.81;99520.84;4336214;32;33984;-67
2023/06/23 04:56:32;;;;;;;12.55;11.20;;;;;;;28.40;50.90;99531.00;4336479;32;35168;-68
2023/06/23 04:59:02;;;;;;;13.20;10.85;;;;;;;28.40;50.84;99537.31;4348637;32;34436;-68
2023/06/23 05:01:30;;;;;;;;;;;;;;;28.40;50.94;99531.81;4361124;32;33878;-68
2023/06/23 05:03:57;;;;;;;11.82;10.63;;;;;;;28.52;50.68;99526.09;4362134;32;33790;-68
2023/06/23 05:06:25;;;;;;;15.45;11.40;;;;;;;28.44;50.87;99529.34;4350981;32;32650;-68
2023/06/23 05:08:53;;;;;;;13.77;11.20;;;;;;;28.42;50.95;99532.38;4376523;32;33606;-67
2023/06/23 05:11:20;;;;;;;13.52;10.90;;;;;;;28.42;50.94;99528.81;4355710;32;33935;-67
2023/06/23 05:13:48;;;;;;;12.95;11.23;;;;;;;28.41;50.94;99522.50;4343411;32;33101;-68
2023/06/23 05:16:16;;;;;;;12.50;11.10;;;;;;;28.42;50.95;99518.66;4355476;32;33626;-68
2023/06/23 05:18:44;;;;;;;17.73;11.38;;;;;;;28.43;50.96;99525.78;4367866;32;34251;-67
2023/06/23 05:21:11;;;;;;;12.45;10.95;;;;;;;28.43;50.97;99528.53;4343112;32;33747;-67
2023/06/23 05:23:42;;;;;;;17.05;11.88;;;;;;;28.44;50.91;99532.09;4343635;32;33672;-67
2023/06/23 05:26:12;;;;;;;14.90;11.63;;;;;;;28.44;50.86;99530.16;4355726;32;34924;-67
2023/06/23 05:28:40;;;;;;;13.57;10.90;;;;;;;28.46;50.98;99538.16;4360859;32;33737;-68
2023/06/23 05:31:07;;;;;;;15.50;11.98;;;;;;;28.45;50.97;99537.34;4360897;32;34570;-69
2023/06/23 05:33:37;;;;;;;13.65;11.98;;;;;;;28.46;50.99;99536.25;4359093;32;33742;-66
2023/06/23 05:36:08;;;;;;;16.45;11.93;;;;;;;28.45;50.95;99540.09;4347134;32;34278;-72
2023/06/23 05:38:36;;;;;;;16.30;12.10;;;;;;;28.48;50.92;99544.19;4362152;32;33473;-66
2023/06/23 05:41:03;;;;;;;16.00;12.40;;;;;;;28.50;50.84;99536.53;4362176;32;33759;-72
2023/06/23 05:43:31;;;;;;;11.95;10.75;;;;;;;28.50;50.83;99533.78;4362092;32;33647;-63
2023/06/23 05:45:59;;;;;;;13.48;11.45;;;;;;;28.50;50.85;99535.72;4375565;32;34840;-71
2023/06/23 05:48:29;;;;;;;13.65;10.38;;;;;;;28.48;50.86;99542.28;4349495;32;32689;-66
2023/06/23 05:50:57;;;;;;;13.40;11.00;;;;;;;28.50;50.84;99533.78;4361821;32;33652;-67
2023/06/23 05:53:25;;;;;;;15.48;11.88;;;;;;;28.51;50.78;99529.94;4346918;32;33536;-69
2023/06/23 05:56:15;;;;;;;15.73;11.52;;;;;;;28.51;50.78;99529.94;4360200;32;34805;-72
2023/06/23 05:58:47;;;;;;;14.15;10.90;;;;;;;28.56;50.72;99529.16;4360830;32;33713;-72
2023/06/23 06:01:19;;;;;;;13.13;11.32;;;;;;;28.53;50.74;99532.41;4355993;32;33913;-73
2023/06/23 06:03:48;;;;;;;15.25;11.18;;;;;;;28.55;50.70;99516.53;4347372;32;33615;-73
2023/06/23 06:06:15;;;;;;;15.48;11.25;;;;;;;28.57;50.63;99523.38;4359472;32;33706;-72
2023/06/23 06:08:43;;;;;;;12.50;11.20;;;;;;;28.57;50.63;99525.31;4335204;32;34408;-66
2023/06/23 06:11:11;;;;;;;13.77;10.93;;;;;;;28.58;50.62;99527.78;4359401;32;34471;-72
2023/06/23 06:13:41;;;;;;;14.50;11.38;;;;;;;28.57;50.65;99522.56;4350672;32;33686;-71
2023/06/23 06:16:08;;;;;;;13.23;11.32;;;;;;;28.56;50.65;99510.75;4363538;32;34069;-71
2023/06/23 06:18:37;;;;;;;17.77;11.85;;;;;;;28.57;50.64;99504.16;4363958;32;34065;-69
2023/06/23 06:21:04;;;;;;;13.52;11.77;;;;;;;28.58;50.66;99505.81;4351641;32;34250;-71
2023/06/23 06:23:32;;;;;;;12.30;10.82;;;;;;;28.58;50.67;99500.31;4363840;32;33875;-71
2023/06/23 06:26:00;;;;;;;13.85;11.23;;;;;;;28.59;50.67;99499.25;4364136;32;34196;-71
2023/06/23 06:28:27;;;;;;;13.65;11.65;;;;;;;28.58;50.67;99497.56;4377552;32;34680;-69
2023/06/23 06:30:56;;;;;;;12.18;10.35;;;;;;;28.59;50.67;99493.75;4351352;32;33837;-71
2023/06/23 06:33:24;;;;;;;13.40;11.30;;;;;;;28.60;50.70;99497.31;4363742;32;33537;-72
2023/06/23 06:35:52;;;;;;;13.62;11.20;;;;;;;28.61;50.68;99493.47;4351451;32;34159;-70
2023/06/23 06:38:19;;;;;;;14.70;11.82;;;;;;;28.61;50.72;99488.00;4351570;32;33606;-65
2023/06/23 06:40:49;;;;;;;14.05;11.27;;;;;;;28.63;50.71;99485.78;4351376;32;33688;-63
2023/06/23 06:43:16;;;;;;;16.00;12.00;;;;;;;28.62;50.75;99481.41;4377324;32;34004;-64
2023/06/23 06:45:44;;;;;;;13.40;12.00;;;;;;;28.63;50.80;99478.41;4363564;32;34084;-66
2023/06/23 06:48:12;;;;;;;15.02;12.48;;;;;;;28.63;50.86;99478.41;4363864;32;33251;-66
2023/06/23 06:50:39;;;;;;;16.52;14.00;;;;;;;28.64;50.92;99473.75;4351337;32;33484;-67
2023/06/23 06:53:07;;;;;;;16.52;12.85;;;;;;;28.65;50.99;99469.91;4363249;32;33905;-68
2023/06/23 06:55:34;;;;;;;15.10;13.32;;;;;;;28.66;51.00;99474.28;4351508;32;34111;-71
2023/06/23 06:58:02;;;;;;;15.60;12.37;;;;;;;28.68;51.03;99486.66;4363353;32;33866;-69
2023/06/23 07:00:30;;;;;;;21.15;13.52;;;;;;;28.69;50.99;99492.97;4376860;32;34480;-71
2023/06/23 07:02:58;;;;;;;14.32;12.13;;;;;;;28.69;51.02;99501.22;4363799;32;33824;-69
2023/06/23 07:05:26;;;;;;;16.10;12.27;;;;;;;28.70;51.00;99498.19;4363566;32;34537;-69
2023/06/23 07:07:54;;;;;;;13.77;12.25;;;;;;;28.70;51.02;99489.13;4363458;32;34669;-71
2023/06/23 07:10:21;;;;;;;13.75;11.75;;;;;;;28.72;50.99;99489.66;4377105;32;34765;-66
2023/06/23 07:12:49;;;;;;;14.73;12.68;;;;;;;28.73;50.96;99500.41;4377007;32;33906;-68
2023/06/23 07:15:17;;;;;;;17.45;12.57;;;;;;;28.75;50.96;99493.81;4376840;32;34030;-67
2023/06/23 07:17:45;;;;;;;14.13;12.18;;;;;;;28.76;50.92;99496.28;4376998;32;34497;-66
2023/06/23 07:20:12;;;;;;;15.85;12.70;;;;;;;28.76;50.97;99492.72;4376865;32;33505;-66
2023/06/23 07:22:40;;;;;;;16.35;12.98;;;;;;;28.76;51.00;99487.22;4377014;32;33574;-68
2023/06/23 07:25:08;;;;;;;13.95;12.35;;;;;;;28.77;51.01;99480.63;4377048;32;34450;-68
2023/06/23 07:27:37;;;;;;;17.42;12.73;;;;;;;28.77;51.03;99480.63;4376128;32;33534;-71
2023/06/23 07:30:05;;;;;;;16.12;13.38;;;;;;;28.78;51.02;99483.13;4368185;32;34046;-69
2023/06/23 07:32:32;;;;;;;16.15;12.55;;;;;;;28.80;51.03;99482.84;4360960;32;34173;-72
2023/06/23 07:35:00;;;;;;;14.40;11.50;;;;;;;28.80;51.00;99478.16;4361965;32;34873;-71
2023/06/23 07:37:28;;;;;;;14.63;11.65;;;;;;;28.82;51.01;99480.63;4361918;32;33634;-69
2023/06/23 07:39:56;;;;;;;14.82;12.55;;;;;;;28.81;51.05;99485.31;4362197;32;34745;-66
2023/06/23 07:42:24;;;;;;;14.18;12.23;;;;;;;28.80;51.06;99485.59;4360684;32;33891;-71
2023/06/23 07:44:52;;;;;;;17.85;12.00;;;;;;;28.79;51.03;99481.19;4361587;32;34691;-69
2023/06/23 07:47:19;;;;;;;15.35;11.48;;;;;;;28.79;51.01;99476.53;4375902;32;34599;-71
2023/06/23 07:49:47;;;;;;;15.18;11.45;;;;;;;28.80;50.93;99480.09;4372579;32;34756;-69
2023/06/23 07:52:14;;;;;;;13.73;12.37;;;;;;;28.79;50.85;99482.03;4369934;32;33667;-73
2023/06/23 07:54:42;;;;;;;15.35;12.25;;;;;;;28.81;50.79;99476.25;4362205;32;35113;-72
2023/06/23 07:57:11;;;;;;;13.50;11.82;;;;;;;28.82;50.76;99480.63;4365915;32;33830;-71
2023/06/23 07:59:39;;;;;;;16.02;12.43;;;;;;;28.81;50.71;99479.81;4363369;32;34800;-70
2023/06/23 08:02:07;;;;;;;13.75;11.45;;;;;;;28.81;50.64;99477.06;4377210;32;33930;-72
2023/06/23 08:04:37;;;;;;;13.62;11.90;;;;;;;28.81;50.58;99473.50;4375952;32;34848;-72
2023/06/23 08:07:05;;;;;;;14.23;12.00;;;;;;;28.82;50.56;99483.37;4377280;32;33411;-73
2023/06/23 08:09:32;;;;;;;12.18;10.45;;;;;;;28.81;50.60;99482.56;4376142;32;34072;-71
2023/06/23 08:12:00;;;;;;;13.95;12.45;;;;;;;28.81;50.64;99479.00;4376915;32;33725;-69
2023/06/23 08:14:28;;;;;;;14.63;11.57;;;;;;;28.82;50.67;99472.41;4376159;32;34136;-72
2023/06/23 08:16:56;;;;;;;13.65;12.13;;;;;;;28.83;50.68;99474.06;4375506;32;34194;-70
2023/06/23 08:19:24;;;;;;;15.38;12.18;;;;;;;28.83;50.72;99474.91;4375061;32;34626;-67
2023/06/23 08:21:52;;;;;;;14.48;12.30;;;;;;;28.84;50.72;99486.69;4375150;32;33872;-72
2023/06/23 08:24:20;;;;;;;14.50;13.00;;;;;;;28.84;50.71;99476.53;4370462;32;35019;-72
2023/06/23 08:26:48;;;;;;;13.57;11.27;;;;;;;28.84;50.75;99470.22;4376472;32;33544;-66
2023/06/23 08:29:15;;;;;;;13.32;11.95;;;;;;;28.85;50.73;99469.13;4376560;32;34650;-66
2023/06/23 08:31:43;;;;;;;14.40;12.13;;;;;;;28.84;50.74;99471.03;4363020;32;33944;-68
2023/06/23 08:34:11;;;;;;;13.25;11.73;;;;;;;28.86;50.73;99474.34;4376337;32;34144;-67
2023/06/23 08:36:38;;;;;;;15.05;12.50;;;;;;;28.85;50.73;99467.19;4372786;32;33661;-62
2023/06/23 08:39:08;;;;;;;16.00;11.82;;;;;;;28.86;50.71;99474.34;4361534;32;34798;-71
2023/06/23 08:41:39;;;;;;;15.00;11.73;;;;;;;28.85;50.65;99480.09;4363644;32;34909;-71
2023/06/23 08:44:06;;;;;;;13.10;11.80;;;;;;;28.85;50.60;99480.94;4356846;32;33410;-68
2023/06/23 08:46:34;;;;;;;14.60;11.93;;;;;;;28.85;50.53;99474.63;4356684;32;33619;-66
2023/06/23 08:49:23;;;;;;;14.98;11.82;;;;;;;28.85;50.48;99469.13;4359030;32;33758;-70
2023/06/23 08:51:50;;;;;;;14.18;11.35;;;;;;;28.84;50.42;99468.31;4355275;32;34886;-73
2023/06/23 08:54:18;;;;;;;14.48;11.25;;;;;;;28.84;50.39;99472.97;4369334;32;34923;-65
2023/06/23 08:56:46;;;;;;;14.07;12.30;;;;;;;28.84;50.37;99473.78;4354937;32;34633;-62
2023/06/23 08:59:13;;;;;;;14.77;10.88;;;;;;;28.82;50.35;99465.00;4355147;32;33933;-69
2023/06/23 09:01:41;;;;;;;17.35;11.98;;;;;;;28.82;50.30;99470.50;4369719;32;33728;-66
2023/06/23 09:04:08;;;;;;;13.73;11.38;;;;;;;28.83;50.26;99482.31;4355285;32;34369;-71
2023/06/23 09:06:40;;;;;;;13.45;11.60;;;;;;;28.83;50.22;99476.81;4369443;32;33747;-73
2023/06/23 09:09:07;;;;;;;12.80;11.10;;;;;;;28.83;50.16;99482.31;4361567;32;33774;-63
2023/06/23 09:11:35;;;;;;;12.65;10.85;;;;;;;28.83;50.11;99483.13;4374949;32;35024;-70
2023/06/23 09:14:03;;;;;;;13.90;11.05;;;;;;;28.81;50.10;99482.56;4361070;32;34054;-66
2023/06/23 09:16:30;;;;;;;12.35;11.15;;;;;;;28.81;50.06;99476.25;4348779;32;34992;-65
2023/06/23 09:18:58;;;;;;;14.95;12.00;;;;;;;28.81;50.04;99490.78;4361118;32;33525;-69
2023/06/23 09:21:26;;;;;;;13.18;11.30;;;;;;;28.80;50.01;99474.59;4361198;32;33904;-65
2023/06/23 09:23:58;;;;;;;11.93;10.65;;;;;;;28.79;49.97;99473.78;4375470;32;34194;-69
2023/06/23 09:26:26;;;;;;;14.38;12.05;;;;;;;28.80;49.94;99469.94;4376181;32;33302;-63
2023/06/23 09:29:12;;;;;;;12.68;10.85;;;;;;;28.79;49.90;99459.22;4362330;32;34771;-71
2023/06/23 09:31:40;;;;;;;14.07;10.57;;;;;;;28.81;49.86;99468.84;4355752;32;35299;-72
2023/06/23 09:34:08;;;;;;;13.13;11.45;;;;;;;28.79;49.84;99465.53;4370575;32;34008;-70
2023/06/23 09:36:36;;;;;;;13.00;10.82;;;;;;;28.79;49.82;99464.72;4359788;32;34466;-72
2023/06/23 09:39:03;;;;;;;12.50;10.70;;;;;;;28.78;49.79;99466.66;4369982;32;33784;-72
2023/06/23 09:41:31;;;;;;;12.90;11.60;;;;;;;28.78;49.77;99472.12;4368704;32;33889;-69
2023/06/23 09:44:18;;;;;;;13.68;10.82;;;;;;;28.77;49.74;99491.59;4357765;32;34141;-72
2023/06/23 09:46:45;;;;;;;10.95;9.82;;;;;;;28.78;49.66;99480.38;4368062;32;33768;-70
2023/06/23 09:49:13;;;;;;;13.52;10.60;;;;;;;28.77;49.66;99467.72;4368764;32;33534;-73
2023/06/23 09:51:47;;;;;;;11.93;9.85;;;;;;;28.78;49.64;99479.56;4367617;32;33588;-73
2023/06/23 09:54:14;;;;;;;12.02;10.82;;;;;;;28.79;49.59;99508.66;4367275;32;33632;-73
2023/06/23 09:56:42;;;;;;;11.75;10.50;;;;;;;28.77;49.58;99510.81;4366212;32;34481;-72
2023/06/23 09:59:09;;;;;;;11.38;9.60;;;;;;;28.77;49.56;99499.84;4356556;32;33753;-73
2023/06/23 10:01:37;;;;;;;12.63;10.68;;;;;;;28.78;49.51;99491.34;4352936;32;34766;-72
2023/06/23 10:04:05;;;;;;;13.00;10.27;;;;;;;28.77;49.49;99491.59;4370345;32;34058;-69
2023/06/23 10:06:37;;;;;;;12.07;10.50;;;;;;;28.76;49.48;99490.78;4350334;32;32805;-72
2023/06/23 10:09:09;;;;;;;11.32;10.20;;;;;;;28.76;49.48;99478.97;4372069;32;33789;-71
2023/06/23 10:11:39;;;;;;;11.35;10.02;;;;;;;28.77;49.43;99483.37;4347287;32;33911;-68
2023/06/23 10:14:10;;;;;;;11.40;10.25;;;;;;;28.78;49.38;99480.38;4343388;32;34183;-71
2023/06/23 10:16:43;;;;;;;11.35;10.15;;;;;;;28.79;49.29;99484.75;4375232;32;33725;-70
2023/06/23 10:19:11;;;;;;;10.88;9.77;;;;;;;28.80;49.26;99485.59;4362308;32;33745;-69
2023/06/23 10:21:39;;;;;;;11.05;9.95;;;;;;;28.80;49.32;99482.84;4359518;32;33965;-71
2023/06/23 10:24:15;;;;;;;12.90;10.18;;;;;;;28.80;49.35;99477.34;4374488;32;34081;-71
2023/06/23 10:26:43;;;;;;;11.12;9.98;;;;;;;28.81;49.33;99476.25;4349228;32;33237;-71
2023/06/23 10:29:12;;;;;;;11.45;10.20;;;;;;;28.80;49.37;99483.66;4360401;32;33751;-71
2023/06/23 10:31:40;;;;;;;11.60;10.40;;;;;;;28.80;49.38;99483.66;4361959;32;33643;-68
2023/06/23 10:34:11;;;;;;;11.32;9.50;;;;;;;28.82;49.35;99483.37;4375527;32;34232;-71
2023/06/23 10:36:40;;;;;;;12.00;10.30;;;;;;;28.80;49.43;99483.66;4362372;32;34556;-68
2023/06/23 10:39:10;;;;;;;11.07;9.52;;;;;;;28.81;49.42;99479.81;4375351;32;34014;-68
2023/06/23 10:41:41;;;;;;;11.48;10.27;;;;;;;28.84;49.35;99475.72;4375250;32;34611;-72
2023/06/23 10:44:10;;;;;;;10.55;9.20;;;;;;;28.83;49.34;99474.91;4350254;32;33311;-72
2023/06/23 10:46:38;;;;;;;11.73;9.98;;;;;;;28.82;49.28;99478.75;4362126;32;33689;-71
2023/06/23 10:49:07;;;;;;;12.00;9.80;;;;;;;28.82;49.30;99483.37;4375190;32;34901;-72
2023/06/23 10:51:36;;;;;;;12.15;10.50;;;;;;;28.81;49.31;99459.78;4350284;32;33904;-71
2023/06/23 10:54:09;;;;;;;10.65;9.55;;;;;;;28.82;49.25;99456.78;4361776;32;34594;-68
2023/06/23 10:56:38;;;;;;;11.45;9.27;;;;;;;28.81;49.27;99462.53;4347280;32;34487;-72
2023/06/23 10:59:26;;;;;;;13.93;10.07;;;;;;;28.81;49.26;99470.75;4359564;32;34219;-72
2023/06/23 11:02:00;;;;;;;11.43;10.10;;;;;;;28.84;49.21;99476.53;4361775;32;33649;-71
2023/06/23 11:04:29;;;;;;;11.20;9.13;;;;;;;28.82;49.28;99478.75;4362531;32;34316;-71
2023/06/23 11:07:12;;;;;;;11.38;9.43;;;;;;;28.80;49.30;99469.13;4357732;32;33604;-72
2023/06/23 11:09:47;;;;;;;12.25;10.38;;;;;;;28.83;49.27;99474.06;4375831;32;33929;-71
2023/06/23 11:12:27;;;;;;;12.05;9.52;;;;;;;28.80;49.30;99471.84;4369149;32;33726;-61
2023/06/23 11:15:05;;;;;;;11.05;9.48;;;;;;;28.82;49.23;99477.88;4369107;32;34779;-67
2023/06/23 11:17:47;;;;;;;10.63;9.52;;;;;;;28.80;49.24;99469.13;4357458;32;33726;-71
2023/06/23 11:20:24;;;;;;;11.50;9.50;;;;;;;28.82;49.18;99476.00;4369951;32;34145;-71
2023/06/23 11:22:59;;;;;;;10.40;9.40;;;;;;;28.80;49.17;99467.19;4377347;32;34029;-72
2023/06/23 11:25:30;;;;;;;11.93;9.23;;;;;;;28.79;49.18;99461.97;4377344;32;34048;-73
2023/06/23 11:28:23;;;;;;;10.70;9.60;;;;;;;28.78;49.17;99465.81;4370270;32;32310;-68
2023/06/23 11:30:59;;;;;;;11.02;9.55;;;;;;;28.82;49.07;99461.41;4372067;32;34054;-72